Portada
METAR-TAF:

METAR-TAF

Aeroports :

Two Harbors, Minnesota, Estats Units d'Amèrica

Richard B. Helgeson Airport

latitud: 47-03N, longitud: 091-45W, altitud: 328 m

Observació

L'informe es va fer fa 19 minuts, a les 01:55 UTC
Vent 6 kt del Nord/Nord-Est
Temperatura -4°C
Humitat 80%
Pressió 1008 hPa
Visibilitat: 2.4 km
Cel cobert a una alçada de 1000 ft
neu

METAR: KTWM 190155Z AUTO 02006KT 1 1/2SM -SN OVC010 M04/M07 A2976 RMK AO2 P0001

Hora: 20:14 (02:14 UTC)


TAF: manca

Observacions i pronòstics meteorològics de més de 4000 aeroports (METAR i TAF).

Les estacions disponibles són els punts grocs i vermells al mapa.

Posi el ratolí al punt desitjat per veure el nom de l'estació.

Feu clic per veure les observacions i els pronòstics meteorològics.

Per canviar el mapa: feu clic els botons verds amb una creu de color negre per apropar; al botó verd amb un guió per allunyar la imatge; o en les fletxes verdes per a mapes adjacents.


METAR-TAF: